Time;durP1;ratioP1;P1;durP2;ratioP2;P2;SDS_P1;SDS_P2;PMS_P1;PMS_P2;Temp;Humidity;BMP_temperature;BMP_pressure;BME280_temperature;BME280_humidity;BME280_pressure;Samples;Min_cycle;Max_cycle;Signal;HPM_P1;HPM_P2
2022/01/08 00:02:12;;;;;;;12.88;6.80;;;;;;;;;;5008509;28;20088;-66
2022/01/08 00:04:38;;;;;;;18.98;7.18;;;;;;;;;;5007813;28;20030;-67
2022/01/08 00:07:04;;;;;;;21.10;6.82;;;;;;;;;;5007672;28;20503;-66
2022/01/08 00:09:30;;;;;;;16.08;6.88;;;;;;;;;;5009467;28;20088;-67
2022/01/08 00:11:56;;;;;;;27.23;7.85;;;;;;;;;;5009155;28;20092;-66
2022/01/08 00:14:24;;;;;;;18.73;6.65;;;;;;;;;;5008082;28;20108;-67
2022/01/08 00:16:51;;;;;;;25.77;8.23;;;;;;;;;;5009287;28;20038;-67
2022/01/08 00:19:17;;;;;;;20.65;6.28;;;;;;;;;;5008473;28;20022;-67
2022/01/08 00:21:43;;;;;;;28.00;7.40;;;;;;;;;;4978424;28;20037;-66
2022/01/08 00:24:09;;;;;;;12.27;6.15;;;;;;;;;;5006651;28;20014;-66
2022/01/08 00:26:35;;;;;;;31.13;7.82;;;;;;;;;;5008782;28;20297;-66
2022/01/08 00:29:01;;;;;;;16.85;7.03;;;;;;;;;;5006013;28;20116;-66
2022/01/08 00:31:27;;;;;;;20.02;7.30;;;;;;;;;;5008900;28;20030;-67
2022/01/08 00:33:53;;;;;;;19.90;6.45;;;;;;;;;;5006896;28;20360;-67
2022/01/08 00:36:19;;;;;;;20.40;7.40;;;;;;;;;;5006456;28;20058;-68
2022/01/08 00:38:45;;;;;;;22.05;7.15;;;;;;;;;;5007841;28;20029;-67
2022/01/08 00:41:12;;;;;;;17.90;6.95;;;;;;;;;;5008976;28;20038;-67
2022/01/08 00:43:38;;;;;;;18.92;7.50;;;;;;;;;;5006973;28;20112;-67
2022/01/08 00:46:04;;;;;;;18.27;7.78;;;;;;;;;;5009424;28;20050;-65
2022/01/08 00:48:30;;;;;;;25.52;7.03;;;;;;;;;;5007544;28;20026;-67
2022/01/08 00:50:56;;;;;;;25.95;8.15;;;;;;;;;;5005104;28;20033;-67
2022/01/08 00:53:22;;;;;;;20.98;8.30;;;;;;;;;;5007010;28;20041;-67
2022/01/08 00:55:48;;;;;;;18.27;8.52;;;;;;;;;;5008734;28;20088;-67
2022/01/08 00:58:14;;;;;;;23.23;8.27;;;;;;;;;;5006839;28;20050;-67
2022/01/08 01:00:43;;;;;;;18.95;7.38;;;;;;;;;;5007686;28;20030;-67
2022/01/08 01:03:10;;;;;;;28.40;7.97;;;;;;;;;;5008264;28;20503;-67
2022/01/08 01:05:36;;;;;;;22.33;7.68;;;;;;;;;;5008608;28;20113;-67
2022/01/08 01:08:02;;;;;;;27.42;8.68;;;;;;;;;;5004536;28;20112;-66
2022/01/08 01:10:28;;;;;;;23.23;7.97;;;;;;;;;;5008412;28;20041;-67
2022/01/08 01:12:54;;;;;;;21.95;7.03;;;;;;;;;;5007818;28;20495;-66
2022/01/08 01:15:20;;;;;;;18.98;7.22;;;;;;;;;;4988352;28;20045;-67
2022/01/08 01:17:47;;;;;;;22.15;7.70;;;;;;;;;;5008025;28;20026;-67
2022/01/08 01:20:14;;;;;;;25.40;8.23;;;;;;;;;;5007779;28;20030;-67
2022/01/08 01:25:18;;;;;;;23.85;7.47;;;;;;;;;;5007916;28;20047;-67
2022/01/08 01:27:57;;;;;;;16.35;6.80;;;;;;;;;;5007911;28;20084;-67
2022/01/08 01:30:51;;;;;;;23.88;6.70;;;;;;;;;;5009269;28;20034;-67
2022/01/08 01:49:18;;;;;;;20.35;7.97;;;;;;;;;;5009140;28;20053;-66
2022/01/08 01:51:44;;;;;;;32.58;8.23;;;;;;;;;;5010908;28;20086;-66
2022/01/08 01:54:10;;;;;;;22.88;8.25;;;;;;;;;;5011383;28;20022;-67
2022/01/08 01:56:37;;;;;;;24.35;8.43;;;;;;;;;;5010882;28;20042;-66
2022/01/08 01:59:03;;;;;;;22.75;5.80;;;;;;;;;;5009612;28;20099;-68
2022/01/08 02:01:29;;;;;;;21.55;7.18;;;;;;;;;;5010439;28;20468;-66
2022/01/08 02:03:55;;;;;;;17.17;6.00;;;;;;;;;;5010526;28;20053;-66
2022/01/08 02:06:21;;;;;;;36.00;9.05;;;;;;;;;;5011389;28;20034;-68
2022/01/08 02:08:47;;;;;;;24.35;6.55;;;;;;;;;;5010185;28;20040;-67
2022/01/08 02:11:16;;;;;;;23.25;7.63;;;;;;;;;;5011631;28;20034;-66
2022/01/08 02:13:42;;;;;;;17.95;5.65;;;;;;;;;;5009457;28;20034;-65
2022/01/08 02:16:16;;;;;;;19.45;6.13;;;;;;;;;;4982498;28;20038;-65
2022/01/08 02:18:43;;;;;;;18.90;6.18;;;;;;;;;;5009885;28;20039;-66
2022/01/08 02:21:09;;;;;;;26.50;6.50;;;;;;;;;;5011322;28;20120;-66
2022/01/08 02:23:35;;;;;;;25.52;6.38;;;;;;;;;;5010871;28;20538;-67
2022/01/08 02:26:04;;;;;;;20.45;5.70;;;;;;;;;;5010698;28;20057;-67
2022/01/08 02:28:31;;;;;;;15.93;5.75;;;;;;;;;;5008339;28;20022;-67
2022/01/08 02:30:57;;;;;;;18.90;6.53;;;;;;;;;;5010896;28;20113;-66
2022/01/08 02:33:29;;;;;;;22.20;5.85;;;;;;;;;;5008697;28;20060;-67
2022/01/08 02:35:56;;;;;;;18.83;5.50;;;;;;;;;;5009617;28;20025;-66
2022/01/08 02:38:23;;;;;;;13.93;5.57;;;;;;;;;;5010744;28;20022;-67
2022/01/08 02:40:59;;;;;;;24.00;5.88;;;;;;;;;;5009782;28;20372;-67
2022/01/08 02:43:28;;;;;;;25.88;6.97;;;;;;;;;;5010253;28;20026;-67
2022/01/08 02:45:54;;;;;;;18.20;5.93;;;;;;;;;;5009653;28;20026;-66
2022/01/08 02:48:20;;;;;;;19.98;6.60;;;;;;;;;;5009055;28;20046;-66
2022/01/08 02:50:46;;;;;;;14.60;5.45;;;;;;;;;;5008388;28;20030;-67
2022/01/08 02:53:12;;;;;;;14.02;6.00;;;;;;;;;;5010294;28;20069;-67
2022/01/08 02:55:38;;;;;;;19.83;5.40;;;;;;;;;;4992283;28;20475;-67
2022/01/08 02:58:04;;;;;;;15.10;5.95;;;;;;;;;;5007697;28;20041;-67
2022/01/08 03:00:30;;;;;;;15.15;5.75;;;;;;;;;;5008502;28;20034;-66
2022/01/08 03:02:56;;;;;;;15.60;6.03;;;;;;;;;;5009887;28;20026;-67
2022/01/08 03:05:41;;;;;;;13.93;4.78;;;;;;;;;;5009597;28;20340;-67
2022/01/08 03:08:07;;;;;;;12.80;5.13;;;;;;;;;;5009774;28;20034;-66
2022/01/08 03:10:33;;;;;;;25.08;5.35;;;;;;;;;;5007512;28;20045;-67
2022/01/08 03:12:59;;;;;;;13.98;5.13;;;;;;;;;;5010090;28;20403;-67
2022/01/08 03:15:25;;;;;;;17.75;4.78;;;;;;;;;;5009285;28;20121;-67
2022/01/08 03:17:51;;;;;;;16.77;5.35;;;;;;;;;;5009526;28;20026;-67
2022/01/08 03:20:17;;;;;;;16.42;4.95;;;;;;;;;;5008609;28;20028;-66
2022/01/08 03:22:45;;;;;;;19.95;6.78;;;;;;;;;;5007903;28;20432;-67
2022/01/08 03:25:11;;;;;;;17.17;6.38;;;;;;;;;;5008802;28;20135;-66
2022/01/08 03:27:41;;;;;;;21.65;6.80;;;;;;;;;;5010656;28;20140;-68
2022/01/08 03:30:07;;;;;;;23.63;6.35;;;;;;;;;;5010219;28;20014;-67
2022/01/08 03:32:34;;;;;;;24.27;7.55;;;;;;;;;;5008780;28;20049;-66
2022/01/08 03:35:00;;;;;;;25.40;7.82;;;;;;;;;;5009340;28;20053;-68
2022/01/08 03:37:26;;;;;;;26.58;7.93;;;;;;;;;;5009848;28;20467;-67
2022/01/08 03:39:52;;;;;;;16.98;7.50;;;;;;;;;;5009375;28;20555;-66
2022/01/08 03:42:18;;;;;;;16.23;7.03;;;;;;;;;;5009627;28;20108;-67
2022/01/08 03:44:44;;;;;;;20.95;8.18;;;;;;;;;;5007793;28;20034;-67
2022/01/08 03:50:03;;;;;;;23.05;7.93;;;;;;;;;;4977730;28;20132;-66
2022/01/08 03:52:29;;;;;;;27.13;7.95;;;;;;;;;;5008431;28;20094;-68
2022/01/08 03:54:55;;;;;;;20.17;6.75;;;;;;;;;;5008342;28;20037;-68
2022/01/08 03:57:21;;;;;;;16.08;6.88;;;;;;;;;;5008830;28;20589;-68
2022/01/08 03:59:47;;;;;;;31.25;6.93;;;;;;;;;;5005809;28;20125;-67
2022/01/08 04:02:13;;;;;;;27.23;7.05;;;;;;;;;;5007824;28;20022;-68
2022/01/08 04:04:39;;;;;;;18.33;6.65;;;;;;;;;;5009002;28;20026;-66
2022/01/08 04:07:05;;;;;;;19.85;6.70;;;;;;;;;;5008655;28;20507;-67
2022/01/08 04:09:31;;;;;;;22.30;6.90;;;;;;;;;;5008888;28;20136;-66
2022/01/08 04:11:57;;;;;;;27.27;7.88;;;;;;;;;;5009366;28;20085;-66
2022/01/08 04:14:25;;;;;;;18.65;6.63;;;;;;;;;;5009458;28;20061;-68
2022/01/08 04:16:53;;;;;;;15.55;6.10;;;;;;;;;;5007886;28;20160;-68
2022/01/08 04:19:19;;;;;;;22.33;6.18;;;;;;;;;;5009199;28;20034;-66
2022/01/08 04:21:59;;;;;;;23.75;7.20;;;;;;;;;;5008206;28;20017;-67
2022/01/08 04:24:25;;;;;;;23.02;8.32;;;;;;;;;;5006193;28;20034;-67
2022/01/08 04:26:51;;;;;;;28.83;8.27;;;;;;;;;;5008327;28;20028;-67
2022/01/08 04:29:17;;;;;;;27.20;7.78;;;;;;;;;;5008848;28;20133;-66
2022/01/08 04:31:44;;;;;;;24.70;7.68;;;;;;;;;;5007412;28;20531;-66
2022/01/08 04:34:10;;;;;;;22.90;7.07;;;;;;;;;;5007897;28;20038;-67
2022/01/08 04:36:37;;;;;;;17.45;7.47;;;;;;;;;;4987113;28;20037;-67
2022/01/08 04:39:03;;;;;;;29.65;7.75;;;;;;;;;;5007168;28;20021;-67
2022/01/08 04:41:29;;;;;;;28.25;8.02;;;;;;;;;;5008683;28;20106;-67
2022/01/08 04:43:55;;;;;;;20.90;7.75;;;;;;;;;;5008488;28;20030;-67
2022/01/08 04:46:21;;;;;;;29.42;9.85;;;;;;;;;;5008369;28;20083;-68
2022/01/08 04:48:47;;;;;;;18.42;7.43;;;;;;;;;;5009162;28;20111;-68
2022/01/08 04:51:13;;;;;;;26.42;7.50;;;;;;;;;;5008737;28;20041;-67
2022/01/08 04:53:39;;;;;;;26.60;7.68;;;;;;;;;;5008784;28;20040;-68
2022/01/08 04:56:05;;;;;;;16.50;6.43;;;;;;;;;;5007836;28;20073;-66
2022/01/08 04:58:31;;;;;;;25.67;6.65;;;;;;;;;;5007971;28;20037;-66
2022/01/08 05:00:58;;;;;;;22.70;7.60;;;;;;;;;;5007613;28;20386;-66
2022/01/08 05:03:24;;;;;;;33.78;7.82;;;;;;;;;;5008074;28;20061;-68
2022/01/08 05:05:50;;;;;;;22.25;8.52;;;;;;;;;;5011690;28;20115;-68
2022/01/08 05:08:16;;;;;;;34.00;7.75;;;;;;;;;;5015588;28;20058;-66
2022/01/08 05:10:42;;;;;;;20.67;7.32;;;;;;;;;;5015343;28;20124;-68
2022/01/08 05:13:08;;;;;;;23.95;7.18;;;;;;;;;;5014566;28;20108;-66
2022/01/08 05:15:35;;;;;;;22.52;6.60;;;;;;;;;;5014022;28;20090;-66
2022/01/08 05:18:02;;;;;;;22.48;6.85;;;;;;;;;;4996641;28;20038;-66
2022/01/08 05:20:33;;;;;;;27.75;6.32;;;;;;;;;;5014022;28;20059;-68
2022/01/08 05:23:02;;;;;;;18.95;6.53;;;;;;;;;;5014449;28;20034;-68
2022/01/08 05:25:29;;;;;;;16.73;6.53;;;;;;;;;;5014655;28;20026;-68
2022/01/08 05:27:55;;;;;;;25.23;6.82;;;;;;;;;;5014347;28;20045;-66
2022/01/08 05:30:22;;;;;;;27.35;6.55;;;;;;;;;;5014684;28;20113;-65
2022/01/08 05:32:48;;;;;;;28.55;5.78;;;;;;;;;;5014272;28;20034;-66
2022/01/08 05:35:14;;;;;;;23.52;6.00;;;;;;;;;;5012710;28;20018;-67
2022/01/08 05:37:41;;;;;;;20.90;6.10;;;;;;;;;;5013705;28;20034;-67
2022/01/08 05:40:08;;;;;;;17.95;5.45;;;;;;;;;;5014740;28;20034;-67
2022/01/08 05:42:34;;;;;;;22.00;5.47;;;;;;;;;;5014000;28;20029;-67
2022/01/08 05:45:00;;;;;;;28.92;6.57;;;;;;;;;;5011036;28;20491;-67
2022/01/08 05:47:31;;;;;;;21.48;5.65;;;;;;;;;;5014592;28;20076;-67
2022/01/08 05:49:57;;;;;;;17.00;5.40;;;;;;;;;;5012800;28;20030;-69
2022/01/08 05:52:23;;;;;;;22.75;5.00;;;;;;;;;;5014156;28;20041;-66
2022/01/08 05:54:49;;;;;;;20.67;5.05;;;;;;;;;;4981297;28;20035;-67
2022/01/08 05:57:15;;;;;;;16.98;4.90;;;;;;;;;;5015022;28;20034;-67
2022/01/08 05:59:41;;;;;;;23.73;5.22;;;;;;;;;;5014947;28;20045;-66
2022/01/08 06:02:09;;;;;;;18.35;5.65;;;;;;;;;;5014344;28;20037;-67
2022/01/08 06:04:35;;;;;;;22.15;5.18;;;;;;;;;;5013104;28;20708;-66
2022/01/08 06:07:01;;;;;;;18.60;5.65;;;;;;;;;;5014564;28;20037;-68
2022/01/08 06:09:27;;;;;;;20.67;5.65;;;;;;;;;;5007304;28;20034;-67
2022/01/08 06:11:53;;;;;;;20.73;5.72;;;;;;;;;;4980160;28;20030;-67
2022/01/08 06:14:19;;;;;;;14.75;5.72;;;;;;;;;;5013276;28;20041;-66
2022/01/08 06:16:45;;;;;;;26.30;6.88;;;;;;;;;;5012480;28;20407;-66
2022/01/08 06:19:12;;;;;;;23.80;5.90;;;;;;;;;;5009919;28;20018;-67
2022/01/08 06:21:38;;;;;;;20.42;6.03;;;;;;;;;;5011012;28;20455;-69
2022/01/08 06:24:05;;;;;;;32.33;6.22;;;;;;;;;;5011160;28;20022;-67
2022/01/08 06:26:31;;;;;;;19.27;6.07;;;;;;;;;;5011312;28;20065;-66
2022/01/08 06:28:57;;;;;;;26.05;6.18;;;;;;;;;;5011082;28;20104;-66
2022/01/08 06:31:24;;;;;;;19.63;6.30;;;;;;;;;;5011456;28;20038;-66
2022/01/08 06:33:50;;;;;;;16.40;6.75;;;;;;;;;;5010510;28;20044;-67
2022/01/08 06:36:19;;;;;;;19.88;5.97;;;;;;;;;;4984848;28;20093;-67
2022/01/08 06:38:48;;;;;;;19.75;5.68;;;;;;;;;;5010463;28;20022;-68
2022/01/08 06:41:14;;;;;;;27.17;6.95;;;;;;;;;;5010747;28;20041;-68
2022/01/08 06:43:41;;;;;;;16.77;6.82;;;;;;;;;;5010749;28;20036;-67
2022/01/08 06:46:07;;;;;;;26.08;7.72;;;;;;;;;;5008645;28;20034;-67
2022/01/08 06:48:33;;;;;;;19.52;6.60;;;;;;;;;;5007930;28;20282;-67
2022/01/08 06:50:59;;;;;;;24.70;6.88;;;;;;;;;;5009840;28;20517;-68
2022/01/08 06:53:25;;;;;;;18.92;6.18;;;;;;;;;;5007940;28;20050;-68
2022/01/08 06:55:51;;;;;;;19.05;6.55;;;;;;;;;;5010977;28;20558;-67
2022/01/08 06:58:19;;;;;;;17.73;7.07;;;;;;;;;;5010263;28;20260;-67
2022/01/08 07:00:45;;;;;;;22.55;8.20;;;;;;;;;;5010726;28;20116;-67
2022/01/08 07:03:12;;;;;;;19.65;7.53;;;;;;;;;;5010757;28;20041;-67
2022/01/08 07:05:38;;;;;;;14.88;8.02;;;;;;;;;;5008920;28;20034;-67
2022/01/08 07:08:04;;;;;;;15.98;8.65;;;;;;;;;;5009737;28;20038;-67
2022/01/08 07:10:30;;;;;;;23.45;9.52;;;;;;;;;;5010284;28;20957;-68
2022/01/08 07:12:56;;;;;;;25.10;8.60;;;;;;;;;;5009089;28;20034;-68
2022/01/08 07:15:23;;;;;;;21.13;8.23;;;;;;;;;;5008756;28;20119;-67
2022/01/08 07:17:49;;;;;;;20.73;8.70;;;;;;;;;;5009370;28;20038;-67
2022/01/08 07:20:15;;;;;;;33.45;8.38;;;;;;;;;;5008934;28;20092;-66
2022/01/08 07:22:41;;;;;;;23.67;7.85;;;;;;;;;;5009610;28;20038;-67
2022/01/08 07:25:08;;;;;;;22.27;8.75;;;;;;;;;;5007362;28;20026;-67
2022/01/08 07:27:36;;;;;;;23.63;7.57;;;;;;;;;;5009105;28;20030;-67
2022/01/08 07:30:03;;;;;;;22.00;8.23;;;;;;;;;;5009819;28;20057;-68
2022/01/08 07:32:29;;;;;;;23.83;7.70;;;;;;;;;;5008928;28;20136;-66
2022/01/08 07:34:55;;;;;;;19.00;8.02;;;;;;;;;;5007782;28;20082;-68
2022/01/08 07:37:22;;;;;;;23.30;7.28;;;;;;;;;;5010598;28;20026;-67
2022/01/08 07:39:48;;;;;;;23.05;7.22;;;;;;;;;;5011283;28;20484;-68
2022/01/08 07:42:14;;;;;;;25.85;7.60;;;;;;;;;;5009941;28;20042;-67
2022/01/08 07:44:40;;;;;;;15.90;6.38;;;;;;;;;;5000997;28;20021;-66
2022/01/08 07:47:06;;;;;;;16.52;6.32;;;;;;;;;;5010121;28;20487;-66
2022/01/08 07:49:32;;;;;;;16.70;6.07;;;;;;;;;;5010832;28;20114;-66
2022/01/08 07:51:59;;;;;;;24.63;6.97;;;;;;;;;;5010429;28;20619;-67
2022/01/08 07:54:25;;;;;;;17.05;6.00;;;;;;;;;;5009272;28;20258;-67
2022/01/08 07:56:51;;;;;;;23.40;6.20;;;;;;;;;;5008974;28;20331;-67
2022/01/08 07:59:17;;;;;;;30.60;8.20;;;;;;;;;;5007895;28;20478;-66
2022/01/08 08:01:43;;;;;;;30.00;7.47;;;;;;;;;;5009642;28;20552;-73
2022/01/08 08:04:09;;;;;;;19.85;7.03;;;;;;;;;;4992095;28;20504;-67
2022/01/08 08:06:47;;;;;;;24.73;7.20;;;;;;;;;;5008719;28;20037;-66
2022/01/08 08:09:13;;;;;;;25.73;8.95;;;;;;;;;;5009829;28;20117;-67
2022/01/08 08:11:39;;;;;;;22.38;8.48;;;;;;;;;;5010307;28;20053;-67
2022/01/08 08:14:05;;;;;;;23.35;9.18;;;;;;;;;;5009186;28;20143;-68
2022/01/08 08:16:31;;;;;;;21.50;9.00;;;;;;;;;;5008410;28;20038;-66
2022/01/08 08:18:57;;;;;;;27.58;9.57;;;;;;;;;;5009479;28;20408;-66
2022/01/08 08:21:23;;;;;;;32.33;10.68;;;;;;;;;;5007758;28;20040;-67
2022/01/08 08:23:49;;;;;;;27.75;11.27;;;;;;;;;;5009692;28;20034;-67
2022/01/08 08:26:16;;;;;;;29.98;11.85;;;;;;;;;;5004112;28;20084;-66
2022/01/08 08:28:42;;;;;;;36.70;12.10;;;;;;;;;;5008472;28;20030;-66
2022/01/08 08:31:08;;;;;;;27.02;12.40;;;;;;;;;;5009214;28;20392;-65
2022/01/08 08:33:34;;;;;;;29.98;12.85;;;;;;;;;;5008933;28;20037;-66
2022/01/08 08:36:00;;;;;;;38.17;13.38;;;;;;;;;;5008750;28;20132;-65
2022/01/08 08:38:26;;;;;;;35.97;13.85;;;;;;;;;;5009631;28;20045;-66
2022/01/08 08:40:53;;;;;;;48.50;14.20;;;;;;;;;;5007939;28;20440;-66
2022/01/08 08:43:19;;;;;;;33.95;15.05;;;;;;;;;;5009241;28;20029;-67
2022/01/08 08:45:45;;;;;;;33.63;15.20;;;;;;;;;;5008499;28;20304;-66
2022/01/08 08:48:12;;;;;;;34.85;16.67;;;;;;;;;;5008827;28;20120;-66
2022/01/08 08:50:38;;;;;;;32.40;15.23;;;;;;;;;;5009163;28;20056;-66
2022/01/08 08:53:04;;;;;;;31.00;15.73;;;;;;;;;;5008896;28;20056;-66
2022/01/08 08:55:30;;;;;;;36.75;16.63;;;;;;;;;;5008358;28;20427;-67
2022/01/08 08:57:56;;;;;;;43.08;18.23;;;;;;;;;;5008238;28;20038;-67
2022/01/08 09:00:22;;;;;;;40.25;18.17;;;;;;;;;;4985894;28;20038;-67
2022/01/08 09:02:49;;;;;;;34.55;17.77;;;;;;;;;;5008002;28;20046;-68
2022/01/08 09:05:15;;;;;;;41.28;19.33;;;;;;;;;;5008530;28;20038;-68
2022/01/08 09:07:41;;;;;;;49.10;20.00;;;;;;;;;;4991096;28;20029;-68
2022/01/08 09:10:09;;;;;;;37.30;19.63;;;;;;;;;;5007900;28;20115;-68
2022/01/08 09:12:36;;;;;;;39.03;18.25;;;;;;;;;;5007564;28;20104;-67
2022/01/08 09:15:02;;;;;;;27.55;17.80;;;;;;;;;;5008369;28;20161;-67
2022/01/08 09:17:28;;;;;;;42.22;19.23;;;;;;;;;;5009339;28;20034;-67
2022/01/08 09:19:54;;;;;;;41.50;19.75;;;;;;;;;;4991566;28;20491;-68
2022/01/08 09:22:20;;;;;;;41.90;18.38;;;;;;;;;;5009205;28;20060;-67
2022/01/08 09:24:48;;;;;;;37.58;19.02;;;;;;;;;;5006846;28;20035;-66
2022/01/08 09:27:14;;;;;;;44.85;19.13;;;;;;;;;;5008590;28;20022;-66
2022/01/08 09:29:40;;;;;;;41.78;19.33;;;;;;;;;;4988858;28;20034;-66
2022/01/08 09:32:07;;;;;;;41.85;19.58;;;;;;;;;;4986818;28;20490;-68
2022/01/08 09:34:33;;;;;;;44.25;20.23;;;;;;;;;;5008320;28;20407;-68
2022/01/08 09:36:59;;;;;;;36.78;19.35;;;;;;;;;;4977326;28;20035;-67
2022/01/08 09:39:25;;;;;;;40.80;20.27;;;;;;;;;;5010237;28;20034;-68
2022/01/08 09:41:53;;;;;;;37.50;18.98;;;;;;;;;;5009056;28;20411;-67
2022/01/08 09:44:20;;;;;;;43.72;21.10;;;;;;;;;;5004482;28;20030;-68
2022/01/08 09:46:46;;;;;;;42.45;20.73;;;;;;;;;;4996490;28;20034;-68
2022/01/08 09:49:12;;;;;;;32.95;20.83;;;;;;;;;;4991268;28;20495;-67
2022/01/08 09:51:38;;;;;;;41.17;21.52;;;;;;;;;;5010912;28;20048;-67
2022/01/08 09:54:04;;;;;;;46.58;20.20;;;;;;;;;;5011571;28;20057;-67
2022/01/08 09:56:32;;;;;;;40.05;22.05;;;;;;;;;;5011236;28;20053;-67
2022/01/08 09:58:58;;;;;;;40.72;20.60;;;;;;;;;;5006522;28;20025;-68
2022/01/08 10:01:32;;;;;;;43.55;21.58;;;;;;;;;;5010256;28;20029;-68
2022/01/08 10:03:58;;;;;;;44.85;21.00;;;;;;;;;;5012063;28;20109;-68
2022/01/08 10:06:29;;;;;;;31.38;19.58;;;;;;;;;;5009630;28;20038;-68
2022/01/08 10:08:55;;;;;;;45.53;20.60;;;;;;;;;;5010582;28;20026;-67
2022/01/08 10:11:22;;;;;;;42.40;20.33;;;;;;;;;;5011487;28;20061;-67
2022/01/08 10:13:52;;;;;;;42.58;20.35;;;;;;;;;;5011420;28;20033;-66
2022/01/08 10:19:05;;;;;;;43.17;20.00;;;;;;;;;;5012455;28;20081;-67
2022/01/08 10:21:37;;;;;;;40.05;20.35;;;;;;;;;;4993770;28;20038;-67
2022/01/08 10:24:08;;;;;;;39.53;20.98;;;;;;;;;;5010388;28;20037;-67
2022/01/08 10:26:34;;;;;;;;;;;;;;;;;;5011469;28;20025;-66
2022/01/08 10:29:01;;;;;;;38.55;18.92;;;;;;;;;;5008614;28;19917;-66
2022/01/08 10:31:28;;;;;;;33.20;18.73;;;;;;;;;;5010091;28;20022;-68
2022/01/08 10:33:54;;;;;;;32.42;16.92;;;;;;;;;;5011563;28;20109;-68
2022/01/08 10:36:22;;;;;;;31.25;17.60;;;;;;;;;;5010878;28;20117;-68
2022/01/08 10:38:55;;;;;;;40.28;19.50;;;;;;;;;;5012179;28;20026;-66
2022/01/08 10:41:21;;;;;;;29.35;17.80;;;;;;;;;;5010273;28;20100;-66
2022/01/08 10:43:48;;;;;;;29.70;16.25;;;;;;;;;;5012055;28;20013;-67
2022/01/08 10:46:14;;;;;;;30.83;17.38;;;;;;;;;;5011590;28;20026;-68
2022/01/08 10:48:44;;;;;;;35.85;17.63;;;;;;;;;;5011068;28;20064;-67
2022/01/08 10:51:15;;;;;;;33.72;17.52;;;;;;;;;;5011091;28;20038;-68
2022/01/08 10:53:51;;;;;;;31.48;16.63;;;;;;;;;;5011539;28;20030;-68
2022/01/08 10:56:21;;;;;;;35.55;18.63;;;;;;;;;;5010275;28;20037;-68
2022/01/08 10:58:52;;;;;;;37.17;19.48;;;;;;;;;;4985925;28;20031;-68
2022/01/08 11:01:35;;;;;;;34.22;18.88;;;;;;;;;;5010189;28;20395;-68
2022/01/08 11:04:01;;;;;;;40.50;21.13;;;;;;;;;;5011311;28;20543;-68
2022/01/08 11:06:27;;;;;;;38.72;19.90;;;;;;;;;;5010142;28;20113;-68
2022/01/08 11:09:00;;;;;;;33.60;20.85;;;;;;;;;;5010857;28;20036;-68
2022/01/08 11:11:45;;;;;;;37.10;21.00;;;;;;;;;;5009787;28;20033;-68
2022/01/08 11:14:21;;;;;;;42.78;17.85;;;;;;;;;;5010205;28;20104;-68
2022/01/08 11:16:51;;;;;;;31.90;17.08;;;;;;;;;;5010992;28;20040;-66
2022/01/08 11:19:17;;;;;;;35.95;17.58;;;;;;;;;;5011713;28;20486;-67
2022/01/08 11:21:43;;;;;;;36.78;17.05;;;;;;;;;;5003581;28;20034;-67
2022/01/08 11:24:10;;;;;;;30.88;15.27;;;;;;;;;;5010326;28;20034;-66
2022/01/08 11:26:37;;;;;;;35.80;16.13;;;;;;;;;;5010140;28;20038;-67
2022/01/08 11:29:03;;;;;;;30.98;14.35;;;;;;;;;;4986932;28;20061;-66
2022/01/08 11:31:31;;;;;;;25.40;13.55;;;;;;;;;;5006483;28;20034;-67
2022/01/08 11:34:03;;;;;;;29.08;14.32;;;;;;;;;;5010117;28;20076;-67
2022/01/08 11:36:30;;;;;;;28.25;13.95;;;;;;;;;;5009744;28;20050;-68
2022/01/08 11:38:57;;;;;;;28.13;14.68;;;;;;;;;;5009102;28;20100;-67
2022/01/08 11:41:23;;;;;;;27.75;12.90;;;;;;;;;;5008391;28;20034;-68
2022/01/08 11:43:50;;;;;;;29.23;13.40;;;;;;;;;;4990149;28;20357;-67
2022/01/08 11:46:17;;;;;;;27.35;14.15;;;;;;;;;;5009896;28;20133;-68
2022/01/08 11:48:45;;;;;;;23.95;12.95;;;;;;;;;;5009801;28;20488;-67
2022/01/08 11:51:18;;;;;;;24.30;12.38;;;;;;;;;;5010270;28;20038;-68
2022/01/08 11:53:46;;;;;;;25.90;13.00;;;;;;;;;;4993689;28;20514;-68
2022/01/08 11:56:21;;;;;;;27.80;14.02;;;;;;;;;;5010831;28;20037;-68
2022/01/08 11:59:01;;;;;;;27.70;14.75;;;;;;;;;;5010582;28;20062;-67
2022/01/08 12:01:27;;;;;;;30.23;14.52;;;;;;;;;;5009115;28;20057;-68
2022/01/08 12:03:55;;;;;;;29.40;14.27;;;;;;;;;;5010420;28;20451;-68
2022/01/08 12:09:07;;;;;;;28.13;14.02;;;;;;;;;;5009223;28;20029;-68
2022/01/08 12:11:54;;;;;;;27.15;13.68;;;;;;;;;;5009441;28;20262;-68
2022/01/08 12:14:23;;;;;;;30.25;13.25;;;;;;;;;;5006993;28;20029;-67
2022/01/08 12:16:50;;;;;;;24.10;13.40;;;;;;;;;;5009744;28;20037;-67
2022/01/08 12:19:34;;;;;;;26.20;13.30;;;;;;;;;;5010426;28;20072;-67
2022/01/08 12:22:01;;;;;;;27.52;12.02;;;;;;;;;;5008342;28;20022;-67
2022/01/08 12:24:27;;;;;;;31.95;13.05;;;;;;;;;;5009444;28;20164;-68
2022/01/08 12:26:54;;;;;;;24.27;11.77;;;;;;;;;;5008235;28;20116;-68
2022/01/08 12:29:38;;;;;;;25.58;12.27;;;;;;;;;;5009328;28;20464;-68
2022/01/08 12:32:38;;;;;;;26.85;12.65;;;;;;;;;;5004773;28;20030;-67
2022/01/08 12:35:20;;;;;;;28.42;12.55;;;;;;;;;;5009321;28;20030;-67
2022/01/08 12:37:48;;;;;;;24.88;12.38;;;;;;;;;;5009954;28;20026;-71
2022/01/08 12:40:32;;;;;;;19.48;10.80;;;;;;;;;;5009845;28;20105;-69
2022/01/08 12:42:58;;;;;;;28.23;11.43;;;;;;;;;;5002284;28;20541;-66
2022/01/08 12:45:30;;;;;;;22.15;11.13;;;;;;;;;;5009261;28;20022;-68
2022/01/08 12:48:05;;;;;;;26.17;11.52;;;;;;;;;;5008640;28;20038;-69
2022/01/08 12:50:40;;;;;;;24.38;11.30;;;;;;;;;;5007512;28;20034;-66
2022/01/08 12:53:06;;;;;;;21.38;10.65;;;;;;;;;;5009495;28;20058;-67
2022/01/08 12:55:42;;;;;;;27.77;10.10;;;;;;;;;;5009153;28;20129;-68
2022/01/08 12:58:17;;;;;;;16.70;9.10;;;;;;;;;;5008816;28;20110;-68
2022/01/08 13:01:01;;;;;;;19.98;9.05;;;;;;;;;;5009586;28;20030;-68
2022/01/08 13:03:27;;;;;;;17.30;9.00;;;;;;;;;;5008869;28;20059;-68
2022/01/08 13:05:53;;;;;;;20.23;9.05;;;;;;;;;;5009385;28;20119;-66
2022/01/08 13:08:23;;;;;;;17.70;8.65;;;;;;;;;;5009702;28;20059;-67
2022/01/08 13:10:54;;;;;;;13.65;8.90;;;;;;;;;;5009622;28;20099;-67
2022/01/08 13:13:20;;;;;;;;;;;;;;;;;;5001122;28;20113;-68
2022/01/08 13:15:46;;;;;;;16.25;8.38;;;;;;;;;;5009465;28;20056;-67
2022/01/08 13:18:30;;;;;;;21.27;9.70;;;;;;;;;;5009276;28;20150;-67
2022/01/08 13:21:04;;;;;;;20.23;9.00;;;;;;;;;;5008219;28;20499;-66
2022/01/08 13:23:30;;;;;;;19.88;9.35;;;;;;;;;;5007982;28;20121;-66
2022/01/08 13:25:57;;;;;;;18.50;9.95;;;;;;;;;;5010886;28;20041;-68
2022/01/08 13:28:24;;;;;;;21.77;9.52;;;;;;;;;;5013460;28;20034;-67
2022/01/08 13:30:51;;;;;;;19.30;10.13;;;;;;;;;;4986806;28;20566;-67
2022/01/08 13:33:24;;;;;;;19.00;10.13;;;;;;;;;;5007680;28;20142;-68
2022/01/08 13:36:00;;;;;;;20.00;9.73;;;;;;;;;;5012782;28;20092;-67
2022/01/08 13:38:31;;;;;;;17.45;9.48;;;;;;;;;;5007481;28;20026;-67
2022/01/08 13:40:57;;;;;;;19.48;9.38;;;;;;;;;;5009837;28;20034;-67
2022/01/08 13:43:24;;;;;;;16.38;8.85;;;;;;;;;;5010718;28;20534;-68
2022/01/08 13:45:53;;;;;;;22.60;9.00;;;;;;;;;;5007437;28;20047;-68
2022/01/08 13:48:19;;;;;;;22.55;8.60;;;;;;;;;;4987492;28;20147;-68
2022/01/08 13:50:53;;;;;;;20.38;9.65;;;;;;;;;;4990964;28;20041;-67
2022/01/08 13:53:20;;;;;;;15.30;8.73;;;;;;;;;;5006058;28;20100;-66
2022/01/08 13:55:48;;;;;;;16.92;8.82;;;;;;;;;;5008561;28;20065;-68
2022/01/08 13:58:34;;;;;;;22.98;9.48;;;;;;;;;;5004433;28;20084;-68
2022/01/08 14:01:05;;;;;;;24.92;9.15;;;;;;;;;;5007587;28;20087;-68
2022/01/08 14:03:33;;;;;;;17.05;9.68;;;;;;;;;;5007665;28;20022;-68
2022/01/08 14:06:04;;;;;;;20.90;10.05;;;;;;;;;;5008652;28;20034;-69
2022/01/08 14:08:31;;;;;;;19.77;9.88;;;;;;;;;;5005213;28;20026;-68
2022/01/08 14:10:59;;;;;;;19.23;10.20;;;;;;;;;;5006289;28;20038;-68
2022/01/08 14:13:27;;;;;;;18.70;9.65;;;;;;;;;;5002276;28;20030;-68
2022/01/08 14:16:03;;;;;;;24.20;10.52;;;;;;;;;;5007472;28;20030;-68
2022/01/08 14:18:30;;;;;;;16.75;9.73;;;;;;;;;;5000281;28;20522;-68
2022/01/08 14:21:10;;;;;;;20.33;11.15;;;;;;;;;;5010377;28;20491;-68
2022/01/08 14:23:36;;;;;;;18.90;10.35;;;;;;;;;;5008798;28;20139;-67
2022/01/08 14:26:12;;;;;;;21.23;9.80;;;;;;;;;;5007476;28;20033;-68
2022/01/08 14:28:38;;;;;;;18.23;9.38;;;;;;;;;;5003948;28;20048;-68
2022/01/08 14:31:12;;;;;;;16.08;9.40;;;;;;;;;;5009838;28;20284;-67
2022/01/08 14:33:58;;;;;;;18.27;9.00;;;;;;;;;;5006603;28;20072;-68
2022/01/08 14:36:24;;;;;;;16.52;9.25;;;;;;;;;;5006999;28;20046;-67
2022/01/08 14:38:52;;;;;;;14.13;8.88;;;;;;;;;;5002216;28;20408;-68
2022/01/08 14:41:39;;;;;;;17.13;8.98;;;;;;;;;;5007094;28;20096;-68
2022/01/08 14:44:06;;;;;;;17.92;8.90;;;;;;;;;;5001064;28;20096;-67
2022/01/08 14:46:32;;;;;;;17.02;10.15;;;;;;;;;;5009955;28;20022;-68
2022/01/08 14:48:58;;;;;;;14.10;8.70;;;;;;;;;;5001901;28;20049;-68
2022/01/08 14:51:29;;;;;;;17.55;9.18;;;;;;;;;;5007376;28;20030;-67
2022/01/08 14:53:56;;;;;;;15.98;10.02;;;;;;;;;;5003154;28;20578;-67
2022/01/08 14:56:23;;;;;;;19.85;10.75;;;;;;;;;;5006979;28;20042;-66
2022/01/08 14:58:49;;;;;;;15.05;10.15;;;;;;;;;;5004877;28;20030;-66